sensor_id;sensor_type;location;lat;lon;timestamp;pressure;altitude;pressure_sealevel;temperature
76541;BMP280;65385;55.772;37.658;2023-06-10T00:00:47;100215.03;;;11.68
76541;BMP280;65385;55.772;37.658;2023-06-10T00:01:49;100217.38;;;11.64
76541;BMP280;65385;55.772;37.658;2023-06-10T00:02:49;100213.66;;;11.60
76541;BMP280;65385;55.772;37.658;2023-06-10T00:03:50;100215.22;;;11.56
76541;BMP280;65385;55.772;37.658;2023-06-10T00:04:52;100213.09;;;11.53
76541;BMP280;65385;55.772;37.658;2023-06-10T00:05:53;100218.84;;;11.50
76541;BMP280;65385;55.772;37.658;2023-06-10T00:06:53;100214.09;;;11.47
76541;BMP280;65385;55.772;37.658;2023-06-10T00:07:54;100216.19;;;11.45
76541;BMP280;65385;55.772;37.658;2023-06-10T00:08:55;100212.00;;;11.44
76541;BMP280;65385;55.772;37.658;2023-06-10T00:09:56;100213.03;;;11.43
76541;BMP280;65385;55.772;37.658;2023-06-10T00:10:57;100209.88;;;11.41
76541;BMP280;65385;55.772;37.658;2023-06-10T00:11:58;100209.59;;;11.38
76541;BMP280;65385;55.772;37.658;2023-06-10T00:13:02;100207.75;;;11.38
76541;BMP280;65385;55.772;37.658;2023-06-10T00:14:04;100215.34;;;11.35
76541;BMP280;65385;55.772;37.658;2023-06-10T00:15:05;100211.94;;;11.34
76541;BMP280;65385;55.772;37.658;2023-06-10T00:16:06;100203.22;;;11.28
76541;BMP280;65385;55.772;37.658;2023-06-10T00:17:07;100213.47;;;11.30
76541;BMP280;65385;55.772;37.658;2023-06-10T00:18:09;100218.69;;;11.30
76541;BMP280;65385;55.772;37.658;2023-06-10T00:19:10;100210.78;;;11.25
76541;BMP280;65385;55.772;37.658;2023-06-10T00:20:14;100216.81;;;11.25
76541;BMP280;65385;55.772;37.658;2023-06-10T00:21:15;100207.66;;;11.23
76541;BMP280;65385;55.772;37.658;2023-06-10T00:22:16;100212.88;;;11.23
76541;BMP280;65385;55.772;37.658;2023-06-10T00:23:16;100217.56;;;11.21
76541;BMP280;65385;55.772;37.658;2023-06-10T00:24:18;100217.03;;;11.19
76541;BMP280;65385;55.772;37.658;2023-06-10T00:25:18;100224.34;;;11.17
76541;BMP280;65385;55.772;37.658;2023-06-10T00:26:19;100223.53;;;11.16
76541;BMP280;65385;55.772;37.658;2023-06-10T00:27:20;100224.34;;;11.17
76541;BMP280;65385;55.772;37.658;2023-06-10T00:28:22;100229.56;;;11.17
76541;BMP280;65385;55.772;37.658;2023-06-10T00:29:23;100221.19;;;11.15
76541;BMP280;65385;55.772;37.658;2023-06-10T00:30:23;100231.66;;;11.15
76541;BMP280;65385;55.772;37.658;2023-06-10T00:31:24;100226.94;;;11.17
76541;BMP280;65385;55.772;37.658;2023-06-10T00:32:26;100223.25;;;11.13
76541;BMP280;65385;55.772;37.658;2023-06-10T00:33:27;100229.03;;;11.15
76541;BMP280;65385;55.772;37.658;2023-06-10T00:34:28;100230.06;;;11.14
76541;BMP280;65385;55.772;37.658;2023-06-10T00:35:28;100225.06;;;11.12
76541;BMP280;65385;55.772;37.658;2023-06-10T00:36:29;100231.91;;;11.13
76541;BMP280;65385;55.772;37.658;2023-06-10T00:37:30;100225.34;;;11.11
76541;BMP280;65385;55.772;37.658;2023-06-10T00:38:32;100231.09;;;11.13
76541;BMP280;65385;55.772;37.658;2023-06-10T00:39:33;100240.78;;;11.12
76541;BMP280;65385;55.772;37.658;2023-06-10T00:40:39;100241.84;;;11.11
76541;BMP280;65385;55.772;37.658;2023-06-10T00:41:41;100235.28;;;11.09
76541;BMP280;65385;55.772;37.658;2023-06-10T00:42:41;100244.16;;;11.08
76541;BMP280;65385;55.772;37.658;2023-06-10T00:43:42;100247.03;;;11.06
76541;BMP280;65385;55.772;37.658;2023-06-10T00:44:43;100240.47;;;11.04
76541;BMP280;65385;55.772;37.658;2023-06-10T00:45:44;100239.13;;;11.01
76541;BMP280;65385;55.772;37.658;2023-06-10T00:46:45;100237.22;;;10.97
76541;BMP280;65385;55.772;37.658;2023-06-10T00:47:46;100245.88;;;10.97
76541;BMP280;65385;55.772;37.658;2023-06-10T00:48:46;100246.13;;;10.96
76541;BMP280;65385;55.772;37.658;2023-06-10T00:49:48;100250.31;;;10.97
76541;BMP280;65385;55.772;37.658;2023-06-10T00:50:49;100250.84;;;10.94
76541;BMP280;65385;55.772;37.658;2023-06-10T00:51:51;100252.41;;;10.95
76541;BMP280;65385;55.772;37.658;2023-06-10T00:52:53;100252.41;;;10.95
76541;BMP280;65385;55.772;37.658;2023-06-10T00:53:55;100252.41;;;10.95
76541;BMP280;65385;55.772;37.658;2023-06-10T00:54:56;100254.78;;;10.96
76541;BMP280;65385;55.772;37.658;2023-06-10T00:55:57;100246.72;;;11.03
76541;BMP280;65385;55.772;37.658;2023-06-10T00:57:00;100252.50;;;11.05
76541;BMP280;65385;55.772;37.658;2023-06-10T00:58:03;100256.25;;;11.14
76541;BMP280;65385;55.772;37.658;2023-06-10T00:59:04;100258.66;;;11.20
76541;BMP280;65385;55.772;37.658;2023-06-10T01:00:05;100261.91;;;11.27
76541;BMP280;65385;55.772;37.658;2023-06-10T01:01:08;100253.56;;;11.36
76541;BMP280;65385;55.772;37.658;2023-06-10T01:02:11;100254.94;;;11.43
76541;BMP280;65385;55.772;37.658;2023-06-10T01:03:12;100244.28;;;11.50
76541;BMP280;65385;55.772;37.658;2023-06-10T01:04:13;100257.16;;;11.56
76541;BMP280;65385;55.772;37.658;2023-06-10T01:05:14;100257.97;;;11.62
76541;BMP280;65385;55.772;37.658;2023-06-10T01:06:31;100264.06;;;11.72
76541;BMP280;65385;55.772;37.658;2023-06-10T01:08:01;100260.47;;;11.83
76541;BMP280;65385;55.772;37.658;2023-06-10T01:09:07;100261.56;;;11.88
76541;BMP280;65385;55.772;37.658;2023-06-10T01:11:21;100269.00;;;12.06
76541;BMP280;65385;55.772;37.658;2023-06-10T01:12:37;100263.28;;;12.19
76541;BMP280;65385;55.772;37.658;2023-06-10T01:13:41;100267.53;;;12.30
76541;BMP280;65385;55.772;37.658;2023-06-10T01:14:43;100270.47;;;12.44
76541;BMP280;65385;55.772;37.658;2023-06-10T01:15:44;100275.78;;;12.54
76541;BMP280;65385;55.772;37.658;2023-06-10T01:16:47;100267.69;;;12.65
76541;BMP280;65385;55.772;37.658;2023-06-10T01:17:59;100281.09;;;12.74
76541;BMP280;65385;55.772;37.658;2023-06-10T01:19:05;100279.81;;;12.81
76541;BMP280;65385;55.772;37.658;2023-06-10T01:20:07;100279.56;;;12.83
76541;BMP280;65385;55.772;37.658;2023-06-10T01:21:22;100281.94;;;13.00
76541;BMP280;65385;55.772;37.658;2023-06-10T01:22:27;100274.59;;;13.07
76541;BMP280;65385;55.772;37.658;2023-06-10T01:23:37;100275.38;;;13.17
76541;BMP280;65385;55.772;37.658;2023-06-10T01:24:37;100280.13;;;13.25
76541;BMP280;65385;55.772;37.658;2023-06-10T01:26:01;100286.97;;;13.47
76541;BMP280;65385;55.772;37.658;2023-06-10T01:27:05;100288.81;;;13.61
76541;BMP280;65385;55.772;37.658;2023-06-10T01:28:13;100286.66;;;13.78
76541;BMP280;65385;55.772;37.658;2023-06-10T01:29:21;100283.22;;;13.88
76541;BMP280;65385;55.772;37.658;2023-06-10T01:30:28;100284.78;;;14.04
76541;BMP280;65385;55.772;37.658;2023-06-10T01:32:40;100277.84;;;14.33
76541;BMP280;65385;55.772;37.658;2023-06-10T01:33:46;100286.44;;;14.49
76541;BMP280;65385;55.772;37.658;2023-06-10T01:34:47;100293.69;;;14.67
76541;BMP280;65385;55.772;37.658;2023-06-10T01:35:50;100288.13;;;14.74
76541;BMP280;65385;55.772;37.658;2023-06-10T01:36:52;100282.84;;;14.79
76541;BMP280;65385;55.772;37.658;2023-06-10T01:37:56;100294.56;;;14.97
76541;BMP280;65385;55.772;37.658;2023-06-10T01:39:00;100297.75;;;14.94
76541;BMP280;65385;55.772;37.658;2023-06-10T01:40:02;100295.09;;;14.99
76541;BMP280;65385;55.772;37.658;2023-06-10T01:41:06;100294.03;;;15.00
76541;BMP280;65385;55.772;37.658;2023-06-10T01:42:09;100296.16;;;14.98
76541;BMP280;65385;55.772;37.658;2023-06-10T01:43:11;100305.66;;;14.99
76541;BMP280;65385;55.772;37.658;2023-06-10T01:44:17;100297.22;;;14.97
76541;BMP280;65385;55.772;37.658;2023-06-10T01:45:19;100296.47;;;14.91
76541;BMP280;65385;55.772;37.658;2023-06-10T01:46:21;100298.56;;;14.89
76541;BMP280;65385;55.772;37.658;2023-06-10T01:47:22;100307.25;;;14.89
76541;BMP280;65385;55.772;37.658;2023-06-10T01:48:23;100302.25;;;14.88
76541;BMP280;65385;55.772;37.658;2023-06-10T01:49:23;100297.31;;;14.86
76541;BMP280;65385;55.772;37.658;2023-06-10T01:50:26;100299.63;;;14.93
76541;BMP280;65385;55.772;37.658;2023-06-10T01:51:26;100298.50;;;15.04
76541;BMP280;65385;55.772;37.658;2023-06-10T01:52:27;100307.06;;;15.20
76541;BMP280;65385;55.772;37.658;2023-06-10T01:53:28;100304.13;;;15.26
76541;BMP280;65385;55.772;37.658;2023-06-10T01:54:29;100307.00;;;15.30
76541;BMP280;65385;55.772;37.658;2023-06-10T01:55:30;100303.31;;;15.31
76541;BMP280;65385;55.772;37.658;2023-06-10T01:56:30;100307.72;;;15.35
76541;BMP280;65385;55.772;37.658;2023-06-10T01:57:31;100301.41;;;15.36
76541;BMP280;65385;55.772;37.658;2023-06-10T01:58:31;100300.19;;;15.24
76541;BMP280;65385;55.772;37.658;2023-06-10T01:59:32;100311.06;;;15.12
76541;BMP280;65385;55.772;37.658;2023-06-10T02:00:33;100309.34;;;14.98
76541;BMP280;65385;55.772;37.658;2023-06-10T02:01:35;100315.56;;;14.73
76541;BMP280;65385;55.772;37.658;2023-06-10T02:02:36;100308.03;;;14.51
76541;BMP280;65385;55.772;37.658;2023-06-10T02:03:37;100314.69;;;14.23
76541;BMP280;65385;55.772;37.658;2023-06-10T02:04:38;100315.31;;;14.00
76541;BMP280;65385;55.772;37.658;2023-06-10T02:05:38;100314.00;;;13.98
76541;BMP280;65385;55.772;37.658;2023-06-10T02:06:39;100314.78;;;13.88
76541;BMP280;65385;55.772;37.658;2023-06-10T02:07:40;100324.53;;;13.72
76541;BMP280;65385;55.772;37.658;2023-06-10T02:08:41;100322.44;;;13.59
76541;BMP280;65385;55.772;37.658;2023-06-10T02:09:42;100317.19;;;13.64
76541;BMP280;65385;55.772;37.658;2023-06-10T02:10:43;100322.97;;;13.87
76541;BMP280;65385;55.772;37.658;2023-06-10T02:11:45;100312.91;;;14.09
76541;BMP280;65385;55.772;37.658;2023-06-10T02:12:46;100318.09;;;14.34
76541;BMP280;65385;55.772;37.658;2023-06-10T02:13:47;100315.88;;;14.61
76541;BMP280;65385;55.772;37.658;2023-06-10T02:14:47;100320.69;;;14.88
76541;BMP280;65385;55.772;37.658;2023-06-10T02:15:48;100320.88;;;15.07
76541;BMP280;65385;55.772;37.658;2023-06-10T02:16:49;100319.25;;;15.11
76541;BMP280;65385;55.772;37.658;2023-06-10T02:17:52;100311.22;;;15.26
76541;BMP280;65385;55.772;37.658;2023-06-10T02:18:52;100324.88;;;15.38
76541;BMP280;65385;55.772;37.658;2023-06-10T02:19:53;100321.59;;;15.46
76541;BMP280;65385;55.772;37.658;2023-06-10T02:20:55;100321.50;;;15.56
76541;BMP280;65385;55.772;37.658;2023-06-10T02:21:57;100325.78;;;15.52
76541;BMP280;65385;55.772;37.658;2023-06-10T02:22:58;100326.91;;;15.41
76541;BMP280;65385;55.772;37.658;2023-06-10T02:24:00;100333.78;;;15.42
76541;BMP280;65385;55.772;37.658;2023-06-10T02:25:02;100324.22;;;15.51
76541;BMP280;65385;55.772;37.658;2023-06-10T02:26:05;100331.09;;;15.76
76541;BMP280;65385;55.772;37.658;2023-06-10T02:27:06;100327.63;;;16.04
76541;BMP280;65385;55.772;37.658;2023-06-10T02:28:07;100329.09;;;16.39
76541;BMP280;65385;55.772;37.658;2023-06-10T02:29:08;100330.38;;;16.60
76541;BMP280;65385;55.772;37.658;2023-06-10T02:30:09;100330.09;;;16.80
76541;BMP280;65385;55.772;37.658;2023-06-10T02:31:10;100325.09;;;16.97
76541;BMP280;65385;55.772;37.658;2023-06-10T02:32:12;100329.66;;;17.24
76541;BMP280;65385;55.772;37.658;2023-06-10T02:33:14;100331.13;;;17.49
76541;BMP280;65385;55.772;37.658;2023-06-10T02:34:15;100331.13;;;17.49
76541;BMP280;65385;55.772;37.658;2023-06-10T02:35:17;100334.19;;;17.56
76541;BMP280;65385;55.772;37.658;2023-06-10T02:36:18;100330.34;;;17.62
76541;BMP280;65385;55.772;37.658;2023-06-10T02:37:18;100331.44;;;17.75
76541;BMP280;65385;55.772;37.658;2023-06-10T02:38:19;100330.53;;;17.79
76541;BMP280;65385;55.772;37.658;2023-06-10T02:39:21;100331.53;;;17.83
76541;BMP280;65385;55.772;37.658;2023-06-10T02:40:23;100338.00;;;17.91
76541;BMP280;65385;55.772;37.658;2023-06-10T02:41:23;100338.84;;;17.86
76541;BMP280;65385;55.772;37.658;2023-06-10T02:42:26;100328.41;;;17.95
76541;BMP280;65385;55.772;37.658;2023-06-10T02:43:27;100342.53;;;18.04
76541;BMP280;65385;55.772;37.658;2023-06-10T02:44:29;100342.63;;;18.12
76541;BMP280;65385;55.772;37.658;2023-06-10T02:45:30;100336.78;;;18.24
76541;BMP280;65385;55.772;37.658;2023-06-10T02:46:32;100341.69;;;18.31
76541;BMP280;65385;55.772;37.658;2023-06-10T02:47:33;100342.31;;;18.28
76541;BMP280;65385;55.772;37.658;2023-06-10T02:48:41;100344.34;;;18.31
76541;BMP280;65385;55.772;37.658;2023-06-10T02:49:43;100343.88;;;18.29
76541;BMP280;65385;55.772;37.658;2023-06-10T02:50:44;100349.56;;;18.36
76541;BMP280;65385;55.772;37.658;2023-06-10T02:51:57;100349.03;;;18.34
76541;BMP280;65385;55.772;37.658;2023-06-10T02:52:59;100347.38;;;18.38
76541;BMP280;65385;55.772;37.658;2023-06-10T02:54:00;100343.47;;;18.35
76541;BMP280;65385;55.772;37.658;2023-06-10T02:55:00;100346.41;;;18.34
76541;BMP280;65385;55.772;37.658;2023-06-10T02:56:02;100344.66;;;18.29
76541;BMP280;65385;55.772;37.658;2023-06-10T02:57:03;100345.13;;;18.31
76541;BMP280;65385;55.772;37.658;2023-06-10T02:58:03;100347.97;;;18.35
76541;BMP280;65385;55.772;37.658;2023-06-10T02:59:05;100343.94;;;18.51
76541;BMP280;65385;55.772;37.658;2023-06-10T03:00:08;100347.91;;;18.62
76541;BMP280;65385;55.772;37.658;2023-06-10T03:01:13;100345.50;;;18.88
76541;BMP280;65385;55.772;37.658;2023-06-10T03:02:28;100350.09;;;19.04
76541;BMP280;65385;55.772;37.658;2023-06-10T03:03:30;100349.94;;;19.23
76541;BMP280;65385;55.772;37.658;2023-06-10T03:04:37;100342.66;;;19.37
76541;BMP280;65385;55.772;37.658;2023-06-10T03:05:43;100349.47;;;19.60
76541;BMP280;65385;55.772;37.658;2023-06-10T03:06:44;100344.38;;;19.72
76541;BMP280;65385;55.772;37.658;2023-06-10T03:07:54;100342.31;;;19.69
76541;BMP280;65385;55.772;37.658;2023-06-10T03:08:56;100346.06;;;19.77
76541;BMP280;65385;55.772;37.658;2023-06-10T03:09:57;100344.81;;;19.66
76541;BMP280;65385;55.772;37.658;2023-06-10T03:10:57;100342.25;;;19.61
76541;BMP280;65385;55.772;37.658;2023-06-10T03:11:58;100352.59;;;19.62
76541;BMP280;65385;55.772;37.658;2023-06-10T03:12:59;100343.88;;;19.70
76541;BMP280;65385;55.772;37.658;2023-06-10T03:14:00;100340.03;;;19.85
76541;BMP280;65385;55.772;37.658;2023-06-10T03:15:03;100348.31;;;19.92
76541;BMP280;65385;55.772;37.658;2023-06-10T03:16:05;100340.69;;;19.99
76541;BMP280;65385;55.772;37.658;2023-06-10T03:17:09;100344.59;;;19.93
76541;BMP280;65385;55.772;37.658;2023-06-10T03:18:11;100344.59;;;19.93
76541;BMP280;65385;55.772;37.658;2023-06-10T03:19:12;100343.66;;;19.89
76541;BMP280;65385;55.772;37.658;2023-06-10T03:20:16;100340.22;;;19.97
76541;BMP280;65385;55.772;37.658;2023-06-10T03:21:19;100348.69;;;20.16
76541;BMP280;65385;55.772;37.658;2023-06-10T03:22:20;100352.94;;;20.26
76541;BMP280;65385;55.772;37.658;2023-06-10T03:23:37;100352.81;;;20.39
76541;BMP280;65385;55.772;37.658;2023-06-10T03:24:38;100354.50;;;20.27
76541;BMP280;65385;55.772;37.658;2023-06-10T03:25:41;100347.31;;;20.19
76541;BMP280;65385;55.772;37.658;2023-06-10T03:26:44;100354.81;;;20.25
76541;BMP280;65385;55.772;37.658;2023-06-10T03:27:45;100352.81;;;20.39
76541;BMP280;65385;55.772;37.658;2023-06-10T03:28:47;100345.28;;;20.58
76541;BMP280;65385;55.772;37.658;2023-06-10T03:29:48;100346.69;;;20.65
76541;BMP280;65385;55.772;37.658;2023-06-10T03:30:50;100354.53;;;20.52
76541;BMP280;65385;55.772;37.658;2023-06-10T03:31:52;100348.41;;;20.43
76541;BMP280;65385;55.772;37.658;2023-06-10T03:32:52;100350.75;;;20.53
76541;BMP280;65385;55.772;37.658;2023-06-10T03:33:56;100357.13;;;20.78
76541;BMP280;65385;55.772;37.658;2023-06-10T03:34:57;100356.16;;;21.00
76541;BMP280;65385;55.772;37.658;2023-06-10T03:35:59;100357.25;;;20.99
76541;BMP280;65385;55.772;37.658;2023-06-10T03:37:00;100364.03;;;20.96
76541;BMP280;65385;55.772;37.658;2023-06-10T03:38:01;100357.91;;;20.87
76541;BMP280;65385;55.772;37.658;2023-06-10T03:39:02;100349.16;;;20.87
76541;BMP280;65385;55.772;37.658;2023-06-10T03:40:03;100353.38;;;20.88
76541;BMP280;65385;55.772;37.658;2023-06-10T03:41:06;100361.66;;;21.03
76541;BMP280;65385;55.772;37.658;2023-06-10T03:42:07;100369.97;;;21.02
76541;BMP280;65385;55.772;37.658;2023-06-10T03:43:08;100359.63;;;20.92
76541;BMP280;65385;55.772;37.658;2023-06-10T03:44:09;100355.41;;;20.91
76541;BMP280;65385;55.772;37.658;2023-06-10T03:45:10;100367.59;;;21.00
76541;BMP280;65385;55.772;37.658;2023-06-10T03:46:11;100363.69;;;21.06
76541;BMP280;65385;55.772;37.658;2023-06-10T03:47:13;100368.88;;;20.94
76541;BMP280;65385;55.772;37.658;2023-06-10T03:48:14;100377.03;;;20.89
76541;BMP280;65385;55.772;37.658;2023-06-10T03:49:20;100368.13;;;20.77
76541;BMP280;65385;55.772;37.658;2023-06-10T03:50:21;100370.00;;;20.76
76541;BMP280;65385;55.772;37.658;2023-06-10T03:51:23;100369.06;;;20.81
76541;BMP280;65385;55.772;37.658;2023-06-10T03:52:24;100361.69;;;20.78
76541;BMP280;65385;55.772;37.658;2023-06-10T03:53:25;100372.63;;;20.85
76541;BMP280;65385;55.772;37.658;2023-06-10T03:54:26;100364.19;;;20.91
76541;BMP280;65385;55.772;37.658;2023-06-10T03:55:26;100363.06;;;21.01
76541;BMP280;65385;55.772;37.658;2023-06-10T03:56:28;100363.69;;;21.06
76541;BMP280;65385;55.772;37.658;2023-06-10T03:57:29;100360.13;;;21.40
76541;BMP280;65385;55.772;37.658;2023-06-10T03:58:30;100367.84;;;21.71
76541;BMP280;65385;55.772;37.658;2023-06-10T03:59:31;100360.25;;;21.81
76541;BMP280;65385;55.772;37.658;2023-06-10T04:00:31;100374.00;;;21.63
76541;BMP280;65385;55.772;37.658;2023-06-10T04:01:41;100374.34;;;21.53
76541;BMP280;65385;55.772;37.658;2023-06-10T04:02:44;100362.63;;;21.45
76541;BMP280;65385;55.772;37.658;2023-06-10T04:03:58;100361.13;;;21.27
76541;BMP280;65385;55.772;37.658;2023-06-10T04:04:59;100362.38;;;21.21
76541;BMP280;65385;55.772;37.658;2023-06-10T04:05:59;100368.00;;;21.28
76541;BMP280;65385;55.772;37.658;2023-06-10T04:07:00;100367.16;;;21.45
76541;BMP280;65385;55.772;37.658;2023-06-10T04:08:01;100364.41;;;21.70
76541;BMP280;65385;55.772;37.658;2023-06-10T04:09:02;100361.81;;;21.82
76541;BMP280;65385;55.772;37.658;2023-06-10T04:10:03;100371.97;;;22.10
76541;BMP280;65385;55.772;37.658;2023-06-10T04:11:05;100370.38;;;22.38
76541;BMP280;65385;55.772;37.658;2023-06-10T04:12:06;100369.88;;;22.77
76541;BMP280;65385;55.772;37.658;2023-06-10T04:13:09;100367.06;;;23.18
76541;BMP280;65385;55.772;37.658;2023-06-10T04:14:15;100355.38;;;23.71
76541;BMP280;65385;55.772;37.658;2023-06-10T04:15:17;100359.78;;;24.04
76541;BMP280;65385;55.772;37.658;2023-06-10T04:16:18;100359.06;;;24.19
76541;BMP280;65385;55.772;37.658;2023-06-10T04:17:20;100376.97;;;24.30
76541;BMP280;65385;55.772;37.658;2023-06-10T04:18:20;100369.56;;;24.12
76541;BMP280;65385;55.772;37.658;2023-06-10T04:19:22;100365.44;;;24.14
76541;BMP280;65385;55.772;37.658;2023-06-10T04:20:24;100368.09;;;24.14
76541;BMP280;65385;55.772;37.658;2023-06-10T04:21:25;100365.91;;;23.92
76541;BMP280;65385;55.772;37.658;2023-06-10T04:22:26;100360.97;;;23.66
76541;BMP280;65385;55.772;37.658;2023-06-10T04:23:26;100368.31;;;23.45
76541;BMP280;65385;55.772;37.658;2023-06-10T04:24:27;100365.84;;;23.16
76541;BMP280;65385;55.772;37.658;2023-06-10T04:25:29;100376.81;;;23.02
76541;BMP280;65385;55.772;37.658;2023-06-10T04:26:29;100371.81;;;22.89
76541;BMP280;65385;55.772;37.658;2023-06-10T04:27:30;100375.66;;;22.79
76541;BMP280;65385;55.772;37.658;2023-06-10T04:28:31;100379.00;;;22.76
76541;BMP280;65385;55.772;37.658;2023-06-10T04:29:33;100372.22;;;22.79
76541;BMP280;65385;55.772;37.658;2023-06-10T04:30:34;100374.91;;;22.91
76541;BMP280;65385;55.772;37.658;2023-06-10T04:31:35;100381.19;;;22.95
76541;BMP280;65385;55.772;37.658;2023-06-10T04:32:35;100381.25;;;22.86
76541;BMP280;65385;55.772;37.658;2023-06-10T04:33:36;100376.81;;;22.90
76541;BMP280;65385;55.772;37.658;2023-06-10T04:34:38;100386.69;;;22.90
76541;BMP280;65385;55.772;37.658;2023-06-10T04:35:40;100377.34;;;22.84
76541;BMP280;65385;55.772;37.658;2023-06-10T04:36:42;100377.03;;;22.85
76541;BMP280;65385;55.772;37.658;2023-06-10T04:37:43;100382.41;;;23.09
76541;BMP280;65385;55.772;37.658;2023-06-10T04:38:44;100368.31;;;23.21
76541;BMP280;65385;55.772;37.658;2023-06-10T04:39:46;100377.13;;;23.46
76541;BMP280;65385;55.772;37.658;2023-06-10T04:40:47;100377.34;;;23.53
76541;BMP280;65385;55.772;37.658;2023-06-10T04:41:48;100376.88;;;23.63
76541;BMP280;65385;55.772;37.658;2023-06-10T04:42:49;100379.78;;;23.58
76541;BMP280;65385;55.772;37.658;2023-06-10T04:43:50;100380.00;;;23.53
76541;BMP280;65385;55.772;37.658;2023-06-10T04:44:50;100397.50;;;23.50
76541;BMP280;65385;55.772;37.658;2023-06-10T04:45:51;100384.66;;;23.32
76541;BMP280;65385;55.772;37.658;2023-06-10T04:46:52;100387.56;;;23.14
76541;BMP280;65385;55.772;37.658;2023-06-10T04:47:52;100387.81;;;22.89
76541;BMP280;65385;55.772;37.658;2023-06-10T04:48:55;100387.19;;;22.71
76541;BMP280;65385;55.772;37.658;2023-06-10T04:49:56;100386.91;;;22.73
76541;BMP280;65385;55.772;37.658;2023-06-10T04:50:58;100390.03;;;22.87
76541;BMP280;65385;55.772;37.658;2023-06-10T04:51:59;100388.56;;;22.89
76541;BMP280;65385;55.772;37.658;2023-06-10T04:53:00;100399.88;;;22.95
76541;BMP280;65385;55.772;37.658;2023-06-10T04:54:01;100390.41;;;23.09
76541;BMP280;65385;55.772;37.658;2023-06-10T04:55:05;100406.03;;;23.32
76541;BMP280;65385;55.772;37.658;2023-06-10T04:56:05;100394.03;;;23.38
76541;BMP280;65385;55.772;37.658;2023-06-10T04:57:08;100393.38;;;23.29
76541;BMP280;65385;55.772;37.658;2023-06-10T04:58:08;100394.09;;;23.17
76541;BMP280;65385;55.772;37.658;2023-06-10T04:59:09;100391.31;;;23.01
76541;BMP280;65385;55.772;37.658;2023-06-10T05:00:10;100395.28;;;22.95
76541;BMP280;65385;55.772;37.658;2023-06-10T05:01:11;100392.09;;;23.02
76541;BMP280;65385;55.772;37.658;2023-06-10T05:02:11;100399.22;;;23.10
76541;BMP280;65385;55.772;37.658;2023-06-10T05:03:12;100396.13;;;23.20
76541;BMP280;65385;55.772;37.658;2023-06-10T05:04:12;100395.44;;;23.11
76541;BMP280;65385;55.772;37.658;2023-06-10T05:05:13;100395.97;;;23.04
76541;BMP280;65385;55.772;37.658;2023-06-10T05:06:14;100388.91;;;22.88
76541;BMP280;65385;55.772;37.658;2023-06-10T05:07:14;100408.63;;;22.95
76541;BMP280;65385;55.772;37.658;2023-06-10T05:08:15;100405.09;;;23.03
76541;BMP280;65385;55.772;37.658;2023-06-10T05:09:16;100407.88;;;22.95
76541;BMP280;65385;55.772;37.658;2023-06-10T05:10:17;100407.78;;;23.03
76541;BMP280;65385;55.772;37.658;2023-06-10T05:11:17;100408.28;;;22.97
76541;BMP280;65385;55.772;37.658;2023-06-10T05:12:18;100410.00;;;23.01
76541;BMP280;65385;55.772;37.658;2023-06-10T05:13:19;100401.31;;;23.04
76541;BMP280;65385;55.772;37.658;2023-06-10T05:14:19;100405.22;;;23.19
76541;BMP280;65385;55.772;37.658;2023-06-10T05:15:21;100405.91;;;23.16
76541;BMP280;65385;55.772;37.658;2023-06-10T05:16:22;100399.34;;;23.13
76541;BMP280;65385;55.772;37.658;2023-06-10T05:17:23;100407.03;;;23.15
76541;BMP280;65385;55.772;37.658;2023-06-10T05:18:23;100396.06;;;23.41
76541;BMP280;65385;55.772;37.658;2023-06-10T05:19:24;100405.84;;;23.73
76541;BMP280;65385;55.772;37.658;2023-06-10T05:20:25;100400.38;;;23.81
76541;BMP280;65385;55.772;37.658;2023-06-10T05:21:26;100400.94;;;23.87
76541;BMP280;65385;55.772;37.658;2023-06-10T05:22:26;100411.00;;;24.06
76541;BMP280;65385;55.772;37.658;2023-06-10T05:23:28;100402.47;;;23.88
76541;BMP280;65385;55.772;37.658;2023-06-10T05:24:28;100401.06;;;23.66
76541;BMP280;65385;55.772;37.658;2023-06-10T05:25:32;100401.41;;;23.65
76541;BMP280;65385;55.772;37.658;2023-06-10T05:26:33;100395.13;;;23.49
76541;BMP280;65385;55.772;37.658;2023-06-10T05:27:37;100403.59;;;23.75
76541;BMP280;65385;55.772;37.658;2023-06-10T05:28:38;100407.84;;;23.40
76541;BMP280;65385;55.772;37.658;2023-06-10T05:29:39;100398.13;;;23.23
76541;BMP280;65385;55.772;37.658;2023-06-10T05:30:40;100406.00;;;23.19
76541;BMP280;65385;55.772;37.658;2023-06-10T05:31:41;100406.66;;;23.04
76541;BMP280;65385;55.772;37.658;2023-06-10T05:32:42;100407.59;;;22.88
76541;BMP280;65385;55.772;37.658;2023-06-10T05:33:43;100410.59;;;22.53
76541;BMP280;65385;55.772;37.658;2023-06-10T05:34:43;100405.50;;;22.19
76541;BMP280;65385;55.772;37.658;2023-06-10T05:35:44;100411.94;;;21.98
76541;BMP280;65385;55.772;37.658;2023-06-10T05:36:45;100418.22;;;21.93
76541;BMP280;65385;55.772;37.658;2023-06-10T05:37:46;100421.00;;;21.97
76541;BMP280;65385;55.772;37.658;2023-06-10T05:38:46;100421.66;;;21.94
76541;BMP280;65385;55.772;37.658;2023-06-10T05:39:47;100428.22;;;21.96
76541;BMP280;65385;55.772;37.658;2023-06-10T05:40:48;100423.25;;;21.86
76541;BMP280;65385;55.772;37.658;2023-06-10T05:41:48;100424.50;;;21.88
76541;BMP280;65385;55.772;37.658;2023-06-10T05:42:49;100429.72;;;21.85
76541;BMP280;65385;55.772;37.658;2023-06-10T05:43:50;100427.13;;;21.97
76541;BMP280;65385;55.772;37.658;2023-06-10T05:44:50;100425.47;;;22.13
76541;BMP280;65385;55.772;37.658;2023-06-10T05:45:51;100431.72;;;22.17
76541;BMP280;65385;55.772;37.658;2023-06-10T05:46:51;100419.44;;;22.45
76541;BMP280;65385;55.772;37.658;2023-06-10T05:47:52;100423.28;;;22.77
76541;BMP280;65385;55.772;37.658;2023-06-10T05:48:52;100423.31;;;23.22
76541;BMP280;65385;55.772;37.658;2023-06-10T05:49:53;100422.13;;;23.80